createdAt,value
2018-11-29T00:02:29.131Z,21.57
2018-11-29T00:05:04.073Z,23.20
2018-11-29T00:07:39.319Z,23.03
2018-11-29T00:10:13.977Z,21.70
2018-11-29T00:12:48.491Z,22.37
2018-11-29T00:15:23.162Z,21.43
2018-11-29T00:17:57.879Z,22.73
2018-11-29T00:20:33.059Z,18.70
2018-11-29T00:23:07.180Z,19.90
2018-11-29T00:25:41.774Z,19.97
2018-11-29T00:28:16.536Z,18.80
2018-11-29T00:30:51.237Z,18.00
2018-11-29T00:33:26.239Z,19.57
2018-11-29T00:36:00.836Z,18.50
2018-11-29T00:38:35.623Z,19.83
2018-11-29T00:41:10.394Z,18.97
2018-11-29T00:43:45.063Z,20.23
2018-11-29T00:46:19.658Z,17.57
2018-11-29T00:48:54.627Z,19.67
2018-11-29T00:51:29.171Z,19.07
2018-11-29T00:54:03.986Z,19.40
2018-11-29T00:56:38.268Z,18.20
2018-11-29T00:59:12.948Z,19.20
2018-11-29T01:01:52.933Z,19.43
2018-11-29T01:04:27.755Z,19.37
2018-11-29T01:07:02.669Z,29.77
2018-11-29T01:09:37.397Z,20.43
2018-11-29T01:12:12.042Z,19.17
2018-11-29T01:14:47.189Z,18.77
2018-11-29T01:17:21.307Z,18.97
2018-11-29T01:19:55.950Z,17.70
2018-11-29T01:22:30.603Z,20.07
2018-11-29T01:25:07.103Z,19.50
2018-11-29T01:27:44.035Z,17.93
2018-11-29T01:30:20.103Z,19.77
2018-11-29T01:32:55.094Z,17.77
2018-11-29T01:35:29.762Z,21.20
2018-11-29T01:38:04.491Z,18.83
2018-11-29T01:40:39.004Z,21.23
2018-11-29T01:43:13.723Z,21.53
2018-11-29T01:45:48.548Z,17.67
2018-11-29T01:48:23.135Z,19.77
2018-11-29T01:50:58.039Z,19.10
2018-11-29T01:53:32.712Z,20.20
2018-11-29T01:56:07.417Z,19.10
2018-11-29T01:58:42.291Z,19.07
2018-11-29T02:01:17.132Z,18.60
2018-11-29T02:03:51.703Z,19.27
2018-11-29T02:06:26.448Z,16.80
2018-11-29T02:09:01.072Z,17.43
2018-11-29T02:11:35.627Z,18.37
2018-11-29T02:14:10.315Z,19.07
2018-11-29T02:16:44.968Z,18.70
2018-11-29T02:19:19.658Z,19.43
2018-11-29T02:22:01.467Z,18.03
2018-11-29T02:24:36.495Z,15.33
2018-11-29T02:27:11.585Z,18.27
2018-11-29T02:29:45.912Z,16.70
2018-11-29T02:32:20.678Z,17.40
2018-11-29T02:34:55.016Z,17.90
2018-11-29T02:37:29.716Z,16.07
2018-11-29T02:40:07.112Z,16.30
2018-11-29T02:42:42.512Z,18.07
2018-11-29T02:45:20.379Z,17.40
2018-11-29T02:47:55.315Z,18.07
2018-11-29T02:50:29.944Z,18.07
2018-11-29T02:53:04.519Z,16.90
2018-11-29T02:55:39.310Z,17.30
2018-11-29T02:58:14.007Z,15.27
2018-11-29T03:00:48.698Z,19.70
2018-11-29T03:03:23.289Z,20.70
2018-11-29T03:05:57.945Z,21.33
2018-11-29T03:08:33.113Z,17.97
2018-11-29T03:11:08.240Z,18.53
2018-11-29T03:13:43.541Z,19.20
2018-11-29T03:16:17.924Z,18.70
2018-11-29T03:18:52.659Z,19.80
2018-11-29T03:21:27.331Z,20.43
2018-11-29T03:24:01.993Z,20.33
2018-11-29T03:26:36.912Z,19.10
2018-11-29T03:29:11.647Z,18.50
2018-11-29T03:31:45.989Z,19.30
2018-11-29T03:34:20.804Z,18.30
2018-11-29T03:36:55.985Z,19.77
2018-11-29T03:39:30.365Z,17.73
2018-11-29T03:42:05.462Z,17.40
2018-11-29T03:44:40.314Z,20.03
2018-11-29T03:47:15.393Z,17.80
2018-11-29T03:49:49.584Z,19.67
2018-11-29T03:52:24.215Z,16.90
2018-11-29T03:54:58.926Z,17.90
2018-11-29T03:57:33.959Z,18.47
2018-11-29T04:00:14.735Z,20.10
2018-11-29T04:02:49.051Z,18.93
2018-11-29T04:05:23.591Z,19.47
2018-11-29T04:07:58.844Z,19.57
2018-11-29T04:10:33.131Z,17.50
2018-11-29T04:13:07.955Z,19.17
2018-11-29T04:15:42.603Z,18.93
2018-11-29T04:18:17.129Z,18.30
2018-11-29T04:20:51.619Z,17.23
2018-11-29T04:23:26.109Z,19.00
2018-11-29T04:26:00.769Z,17.03
2018-11-29T04:28:35.236Z,17.40
2018-11-29T04:31:09.895Z,18.23
2018-11-29T04:33:45.078Z,19.00
2018-11-29T04:36:19.387Z,15.60
2018-11-29T04:38:54.967Z,15.03
2018-11-29T04:41:30.476Z,15.40
2018-11-29T04:44:05.499Z,15.53
2018-11-29T04:46:48.047Z,16.20
2018-11-29T04:49:22.434Z,15.03
2018-11-29T04:51:57.479Z,16.80
2018-11-29T04:54:31.619Z,14.57
2018-11-29T04:57:07.107Z,17.10
2018-11-29T04:59:42.600Z,16.17
2018-11-29T05:02:17.224Z,18.50
2018-11-29T05:04:51.790Z,16.97
2018-11-29T05:07:26.883Z,15.77
2018-11-29T05:10:01.099Z,15.73
2018-11-29T05:12:35.797Z,16.20
2018-11-29T05:15:11.051Z,17.17
2018-11-29T05:17:46.130Z,18.27
2018-11-29T05:20:20.695Z,16.43
2018-11-29T05:22:55.692Z,17.43
2018-11-29T05:25:30.002Z,17.23
2018-11-29T05:28:05.347Z,18.93
2018-11-29T05:30:40.503Z,16.27
2018-11-29T05:33:15.411Z,17.67
2018-11-29T05:35:49.743Z,16.80
2018-11-29T05:38:24.423Z,17.03
2018-11-29T05:40:59.235Z,17.93
2018-11-29T05:43:34.336Z,15.53
2018-11-29T05:46:09.428Z,18.23
2018-11-29T05:48:44.041Z,17.77
2018-11-29T05:51:18.699Z,17.60
2018-11-29T05:53:53.427Z,18.83
2018-11-29T05:56:27.915Z,15.50
2018-11-29T05:59:03.082Z,17.27
2018-11-29T06:01:39.536Z,17.87
2018-11-29T06:04:13.662Z,17.53
2018-11-29T06:06:48.193Z,18.03
2018-11-29T06:09:22.804Z,17.20
2018-11-29T06:11:57.518Z,16.87
2018-11-29T06:14:32.433Z,16.20
2018-11-29T06:17:14.231Z,16.43
2018-11-29T06:19:48.687Z,15.57
2018-11-29T06:22:23.919Z,15.73
2018-11-29T06:24:58.543Z,16.03
2018-11-29T06:27:33.281Z,17.47
2018-11-29T06:30:14.703Z,17.77
2018-11-29T06:32:50.494Z,16.40
2018-11-29T06:35:25.424Z,17.63
2018-11-29T06:38:00.117Z,15.20
2018-11-29T06:40:35.969Z,17.10
2018-11-29T06:43:10.255Z,16.50
2018-11-29T06:45:44.730Z,16.40
2018-11-29T06:48:19.391Z,16.20
2018-11-29T06:50:54.578Z,17.13
2018-11-29T06:53:34.473Z,16.57
2018-11-29T06:56:09.767Z,15.37
2018-11-29T06:58:44.023Z,15.77
2018-11-29T07:01:19.446Z,17.07
2018-11-29T07:03:54.186Z,15.20
2018-11-29T07:06:29.692Z,16.90
2018-11-29T07:09:07.364Z,15.50
2018-11-29T07:11:42.107Z,14.67
2018-11-29T07:14:17.214Z,15.20
2018-11-29T07:16:51.926Z,15.00
2018-11-29T07:19:26.565Z,13.30
2018-11-29T07:22:01.280Z,14.87
2018-11-29T07:24:36.702Z,14.47
2018-11-29T07:27:11.753Z,14.00
2018-11-29T07:29:46.125Z,13.80
2018-11-29T07:32:23.658Z,15.47
2018-11-29T07:34:58.158Z,12.43
2018-11-29T07:37:33.015Z,13.53
2018-11-29T07:40:13.714Z,12.67
2018-11-29T07:42:51.843Z,10.70
2018-11-29T07:45:26.559Z,10.63
2018-11-29T07:48:01.554Z,11.10
2018-11-29T07:50:35.835Z,12.50
2018-11-29T07:53:10.761Z,9.23
2018-11-29T07:55:45.141Z,10.13
2018-11-29T07:58:19.766Z,9.13
2018-11-29T08:00:54.269Z,10.03
2018-11-29T08:03:29.000Z,9.20
2018-11-29T08:06:03.787Z,9.33
2018-11-29T08:08:38.442Z,9.47
2018-11-29T08:11:13.782Z,8.03
2018-11-29T08:13:48.640Z,8.20
2018-11-29T08:16:24.007Z,8.40
2018-11-29T08:18:59.059Z,7.33
2018-11-29T08:21:33.725Z,7.90
2018-11-29T08:24:08.779Z,8.80
2018-11-29T08:26:43.086Z,7.10
2018-11-29T08:29:17.801Z,10.70
2018-11-29T08:31:52.599Z,9.90
2018-11-29T08:34:27.498Z,9.60
2018-11-29T08:37:02.203Z,11.37
2018-11-29T08:39:36.741Z,11.60
2018-11-29T08:42:11.447Z,11.20
2018-11-29T08:44:46.057Z,9.83
2018-11-29T08:47:20.769Z,12.23
2018-11-29T08:49:55.247Z,12.33
2018-11-29T08:52:29.852Z,11.23
2018-11-29T08:55:07.338Z,12.53
2018-11-29T08:57:42.290Z,11.23
2018-11-29T09:00:18.326Z,11.93
2018-11-29T09:02:53.367Z,12.30
2018-11-29T09:05:27.881Z,11.70
2018-11-29T09:08:02.538Z,9.40
2018-11-29T09:10:37.127Z,10.43
2018-11-29T09:13:11.652Z,10.10
2018-11-29T09:15:46.379Z,9.10
2018-11-29T09:18:21.028Z,9.47
2018-11-29T09:20:55.790Z,7.50
2018-11-29T09:23:30.556Z,7.80
2018-11-29T09:26:06.835Z,7.97
2018-11-29T09:28:41.124Z,8.13
2018-11-29T09:31:16.087Z,9.33
2018-11-29T09:33:51.113Z,8.40
2018-11-29T09:36:25.840Z,8.33
2018-11-29T09:39:00.693Z,6.90
2018-11-29T09:41:35.918Z,8.80
2018-11-29T09:44:10.944Z,8.13
2018-11-29T09:46:45.539Z,7.80
2018-11-29T09:49:20.144Z,7.00
2018-11-29T09:51:54.837Z,8.07
2018-11-29T09:54:29.450Z,8.40
2018-11-29T09:57:03.986Z,9.13
2018-11-29T09:59:38.652Z,8.50
2018-11-29T10:02:13.279Z,8.00
2018-11-29T10:04:47.888Z,7.90
2018-11-29T10:07:23.351Z,7.80
2018-11-29T10:09:58.243Z,7.63
2018-11-29T10:12:33.140Z,9.00
2018-11-29T10:15:10.162Z,7.50
2018-11-29T10:17:45.171Z,8.27
2018-11-29T10:20:19.771Z,7.50
2018-11-29T10:22:54.923Z,7.30
2018-11-29T10:25:29.889Z,8.40
2018-11-29T10:28:08.286Z,8.00
2018-11-29T10:30:50.364Z,8.50
2018-11-29T10:33:25.609Z,7.47
2018-11-29T10:36:00.000Z,7.00
2018-11-29T10:38:35.079Z,6.73
2018-11-29T10:41:09.877Z,7.30
2018-11-29T10:43:44.635Z,7.70
2018-11-29T10:46:18.983Z,8.17
2018-11-29T10:48:53.804Z,7.03
2018-11-29T10:51:28.083Z,7.97
2018-11-29T10:54:02.611Z,7.50
2018-11-29T10:56:37.051Z,7.13
2018-11-29T10:59:11.869Z,7.63
2018-11-29T11:02:50.155Z,7.10
2018-11-29T11:05:24.469Z,8.10
2018-11-29T11:07:59.016Z,7.17
2018-11-29T11:10:33.982Z,6.83
2018-11-29T11:13:08.281Z,7.17
2018-11-29T11:15:42.980Z,9.53
2018-11-29T11:18:18.051Z,7.70
2018-11-29T11:20:52.357Z,7.30
2018-11-29T11:23:27.019Z,8.30
2018-11-29T11:26:01.836Z,7.33
2018-11-29T11:28:36.051Z,8.43
2018-11-29T11:31:10.752Z,10.70
2018-11-29T11:33:46.227Z,11.37
2018-11-29T11:36:21.128Z,11.60
2018-11-29T11:38:55.624Z,11.00
2018-11-29T11:41:30.847Z,11.20
2018-11-29T11:44:05.907Z,11.80
2018-11-29T11:46:40.686Z,10.23
2018-11-29T11:49:14.953Z,10.67
2018-11-29T11:51:49.928Z,10.10
2018-11-29T11:54:24.312Z,11.17
2018-11-29T11:56:59.060Z,11.80
2018-11-29T11:59:33.703Z,11.07
2018-11-29T12:02:08.308Z,12.17
2018-11-29T12:04:42.849Z,12.40
2018-11-29T12:07:17.700Z,12.57
2018-11-29T12:09:52.083Z,12.23
2018-11-29T12:12:26.608Z,10.70
2018-11-29T12:15:01.252Z,11.83
2018-11-29T12:17:36.095Z,11.63
2018-11-29T12:20:16.834Z,15.23
2018-11-29T12:22:51.591Z,13.07
2018-11-29T12:25:25.787Z,12.00
2018-11-29T12:28:01.378Z,11.20
2018-11-29T12:30:40.267Z,12.37
2018-11-29T12:33:15.823Z,10.60
2018-11-29T12:35:50.584Z,11.47
2018-11-29T12:38:25.414Z,12.30
2018-11-29T12:40:59.893Z,10.97
2018-11-29T12:43:35.275Z,12.23
2018-11-29T12:46:09.449Z,12.33
2018-11-29T12:48:44.263Z,11.97
2018-11-29T12:51:18.840Z,13.33
2018-11-29T12:53:53.538Z,12.43
2018-11-29T12:56:29.037Z,12.60
2018-11-29T12:59:04.267Z,11.83
2018-11-29T13:01:38.676Z,11.07
2018-11-29T13:04:13.148Z,12.50
2018-11-29T13:06:47.838Z,12.67
2018-11-29T13:09:22.910Z,12.60
2018-11-29T13:11:58.074Z,12.67
2018-11-29T13:14:33.452Z,12.10
2018-11-29T13:17:07.721Z,12.20
2018-11-29T13:19:42.561Z,12.27
2018-11-29T13:22:17.417Z,13.43
2018-11-29T13:24:52.364Z,12.63
2018-11-29T13:27:27.089Z,14.00
2018-11-29T13:30:01.955Z,12.90
2018-11-29T13:32:36.777Z,13.47
2018-11-29T13:35:29.947Z,12.50
2018-11-29T13:38:10.728Z,14.53
2018-11-29T13:40:47.566Z,13.70
2018-11-29T13:43:22.240Z,13.87
2018-11-29T13:45:56.935Z,15.00
2018-11-29T13:48:32.274Z,15.73
2018-11-29T13:51:07.169Z,16.73
2018-11-29T13:53:41.917Z,17.50
2018-11-29T13:56:16.867Z,17.67
2018-11-29T13:58:51.159Z,16.80
2018-11-29T14:01:25.787Z,16.53
2018-11-29T14:04:00.504Z,17.27
2018-11-29T14:06:35.067Z,16.77
2018-11-29T14:09:10.139Z,17.20
2018-11-29T14:11:44.522Z,17.77
2018-11-29T14:14:19.015Z,17.00
2018-11-29T14:16:53.607Z,17.50
2018-11-29T14:19:28.092Z,15.90
2018-11-29T14:22:02.981Z,18.63
2018-11-29T14:24:37.511Z,16.30
2018-11-29T14:27:12.139Z,16.20
2018-11-29T14:29:46.846Z,14.30
2018-11-29T14:32:21.420Z,16.53
2018-11-29T14:34:55.939Z,14.97
2018-11-29T14:37:30.624Z,16.53
2018-11-29T14:40:10.856Z,15.00
2018-11-29T14:42:45.346Z,15.50
2018-11-29T14:45:23.451Z,14.67
2018-11-29T14:47:58.447Z,14.70
2018-11-29T14:50:38.682Z,15.80
2018-11-29T14:53:13.479Z,16.13
2018-11-29T14:55:48.226Z,15.60
2018-11-29T14:58:22.899Z,15.50
2018-11-29T15:00:58.573Z,16.60
2018-11-29T15:03:33.542Z,19.50
2018-11-29T15:06:07.887Z,18.10
2018-11-29T15:08:42.495Z,16.37
2018-11-29T15:11:17.550Z,16.33
2018-11-29T15:13:52.642Z,16.37
2018-11-29T15:16:27.343Z,18.07
2018-11-29T15:19:02.100Z,17.63
2018-11-29T15:21:36.715Z,16.53
2018-11-29T15:24:11.609Z,17.07
2018-11-29T15:26:46.073Z,16.13
2018-11-29T15:29:21.258Z,16.20
2018-11-29T15:31:55.627Z,16.97
2018-11-29T15:37:11.519Z,17.00
2018-11-29T15:39:46.019Z,17.73
2018-11-29T15:42:21.027Z,18.23
2018-11-29T15:44:55.655Z,15.73
2018-11-29T15:47:30.188Z,17.30
2018-11-29T15:50:10.952Z,17.83
2018-11-29T15:52:45.368Z,17.87
2018-11-29T15:55:21.837Z,19.20
2018-11-29T15:57:56.631Z,16.93
2018-11-29T16:00:31.302Z,16.53
2018-11-29T16:03:08.102Z,17.53
2018-11-29T16:05:43.405Z,17.43
2018-11-29T16:08:17.767Z,19.27
2018-11-29T16:10:52.921Z,16.93
2018-11-29T16:13:28.191Z,18.93
2018-11-29T16:16:02.339Z,18.67
2018-11-29T16:18:36.892Z,18.20
2018-11-29T16:21:11.350Z,18.57
2018-11-29T16:23:46.238Z,17.93
2018-11-29T16:26:20.563Z,19.53
2018-11-29T16:28:56.329Z,18.37
2018-11-29T16:31:30.571Z,18.00
2018-11-29T16:34:05.350Z,19.13
2018-11-29T16:36:39.832Z,18.07
2018-11-29T16:39:14.947Z,20.60
2018-11-29T16:41:49.799Z,19.03
2018-11-29T16:44:24.363Z,19.77
2018-11-29T16:46:58.909Z,18.87
2018-11-29T16:49:33.563Z,17.63
2018-11-29T16:52:08.204Z,17.90
2018-11-29T16:54:42.772Z,17.93
2018-11-29T16:57:17.307Z,18.53
2018-11-29T16:59:52.120Z,18.33
2018-11-29T17:02:26.405Z,19.43
2018-11-29T17:05:00.930Z,19.13
2018-11-29T17:07:35.491Z,19.87
2018-11-29T17:10:12.747Z,21.50
2018-11-29T17:12:52.820Z,20.10
2018-11-29T17:15:27.351Z,19.90
2018-11-29T17:18:02.278Z,19.87
2018-11-29T17:20:36.960Z,22.80
2018-11-29T17:23:12.136Z,19.80
2018-11-29T17:25:46.989Z,21.80
2018-11-29T17:28:21.424Z,20.80
2018-11-29T17:30:56.339Z,21.73
2018-11-29T17:33:31.428Z,21.20
2018-11-29T17:36:06.119Z,19.50
2018-11-29T17:38:40.681Z,17.53
2018-11-29T17:41:15.348Z,20.07
2018-11-29T17:43:49.855Z,18.53
2018-11-29T17:46:24.711Z,18.70
2018-11-29T17:48:58.938Z,20.90
2018-11-29T17:51:36.828Z,17.90
2018-11-29T17:54:11.006Z,19.50
2018-11-29T17:56:45.999Z,19.40
2018-11-29T17:59:20.372Z,22.57
2018-11-29T18:01:54.932Z,21.80
2018-11-29T18:04:29.835Z,20.23
2018-11-29T18:07:06.628Z,20.30
2018-11-29T18:09:41.033Z,20.50
2018-11-29T18:12:15.868Z,25.07
2018-11-29T18:14:50.059Z,23.77
2018-11-29T18:17:24.661Z,23.67
2018-11-29T18:19:59.224Z,23.40
2018-11-29T18:22:33.859Z,22.10
2018-11-29T18:25:11.811Z,21.93
2018-11-29T18:27:49.479Z,22.50
2018-11-29T18:30:24.456Z,22.97
2018-11-29T18:32:59.049Z,23.60
2018-11-29T18:35:33.850Z,23.53
2018-11-29T18:38:08.350Z,22.40
2018-11-29T18:40:42.995Z,23.77
2018-11-29T18:43:17.863Z,22.40
2018-11-29T18:45:52.272Z,20.83
2018-11-29T18:48:26.862Z,22.40
2018-11-29T18:51:01.567Z,23.60
2018-11-29T18:53:36.471Z,23.60
2018-11-29T18:56:11.520Z,22.23
2018-11-29T18:58:46.068Z,20.43
2018-11-29T19:01:20.635Z,22.43
2018-11-29T19:03:55.184Z,21.07
2018-11-29T19:06:29.815Z,21.03
2018-11-29T19:09:07.503Z,22.00
2018-11-29T19:11:41.846Z,24.30
2018-11-29T19:14:16.501Z,22.27
2018-11-29T19:16:51.219Z,22.17
2018-11-29T19:19:25.925Z,22.17
2018-11-29T19:22:00.484Z,21.40
2018-11-29T19:24:35.094Z,25.13
2018-11-29T19:27:09.780Z,22.23
2018-11-29T19:29:44.420Z,21.47
2018-11-29T19:32:19.005Z,21.03
2018-11-29T19:34:53.928Z,23.00
2018-11-29T19:37:28.111Z,22.30
2018-11-29T19:40:03.682Z,23.87
2018-11-29T19:42:38.515Z,21.87
2018-11-29T19:45:15.567Z,21.10
2018-11-29T19:47:51.501Z,23.67
2018-11-29T19:50:26.316Z,24.67
2018-11-29T19:53:03.698Z,21.00
2018-11-29T19:55:38.602Z,21.90
2018-11-29T19:58:14.851Z,21.20
2018-11-29T20:00:50.604Z,21.70
2018-11-29T20:03:26.705Z,21.93
2018-11-29T20:06:02.980Z,21.90
2018-11-29T20:08:38.549Z,19.73
2018-11-29T20:11:14.932Z,22.63
2018-11-29T20:13:50.876Z,20.27
2018-11-29T20:16:26.245Z,20.10
2018-11-29T20:19:01.921Z,22.50
2018-11-29T20:21:37.675Z,20.67
2018-11-29T20:24:12.548Z,18.80
2018-11-29T20:26:47.480Z,20.33
2018-11-29T20:29:22.527Z,20.83
2018-11-29T20:31:57.157Z,21.10
2018-11-29T20:34:31.820Z,20.50
2018-11-29T20:37:06.696Z,20.50
2018-11-29T20:39:41.003Z,22.70
2018-11-29T20:42:15.470Z,21.20
2018-11-29T20:44:49.750Z,20.70
2018-11-29T20:47:25.243Z,22.10
2018-11-29T20:49:59.820Z,22.50
2018-11-29T20:52:35.316Z,22.13
2018-11-29T20:55:12.347Z,23.43
2018-11-29T20:57:46.484Z,24.60
2018-11-29T21:00:21.228Z,23.33
2018-11-29T21:02:55.730Z,25.00
2018-11-29T21:05:30.477Z,23.30
2018-11-29T21:08:06.594Z,21.10
2018-11-29T21:10:41.753Z,21.83
2018-11-29T21:13:16.915Z,22.60
2018-11-29T21:15:51.938Z,21.80
2018-11-29T21:18:26.224Z,19.83
2018-11-29T21:21:00.757Z,20.93
2018-11-29T21:23:35.163Z,21.87
2018-11-29T21:26:09.791Z,24.00
2018-11-29T21:28:44.242Z,22.50
2018-11-29T21:31:18.706Z,22.60
2018-11-29T21:33:53.215Z,20.97
2018-11-29T21:36:27.901Z,22.87
2018-11-29T21:39:02.731Z,20.80
2018-11-29T21:41:37.160Z,22.70
2018-11-29T21:44:12.124Z,20.80
2018-11-29T21:46:46.323Z,22.60
2018-11-29T21:49:21.273Z,23.47
2018-11-29T21:51:56.299Z,24.00
2018-11-29T21:54:31.003Z,24.00
2018-11-29T21:57:05.774Z,23.40
2018-11-29T21:59:40.389Z,25.37
2018-11-29T22:02:15.155Z,22.00
2018-11-29T22:04:49.628Z,21.43
2018-11-29T22:07:24.236Z,21.57
2018-11-29T22:09:59.145Z,22.33
2018-11-29T22:12:33.418Z,21.97
2018-11-29T22:15:10.890Z,20.83
2018-11-29T22:18:29.704Z,20.97
2018-11-29T22:21:05.457Z,23.97
2018-11-29T22:23:40.803Z,24.00
2018-11-29T22:26:16.500Z,23.20
2018-11-29T22:28:50.652Z,24.20
2018-11-29T22:31:25.287Z,23.60
2018-11-29T22:34:00.083Z,22.50
2018-11-29T22:36:34.422Z,23.47
2018-11-29T22:39:09.707Z,23.70
2018-11-29T22:41:44.351Z,21.50
2018-11-29T22:44:18.953Z,21.87
2018-11-29T22:46:53.714Z,23.43
2018-11-29T22:49:28.238Z,24.00
2018-11-29T22:52:02.824Z,21.40
2018-11-29T22:54:37.424Z,23.00
2018-11-29T22:57:12.075Z,20.73
2018-11-29T22:59:46.880Z,20.83
2018-11-29T23:02:21.625Z,24.10
2018-11-29T23:04:55.865Z,23.50
2018-11-29T23:07:30.418Z,22.47
2018-11-29T23:10:07.727Z,22.90
2018-11-29T23:12:42.715Z,22.60
2018-11-29T23:15:17.657Z,22.27
2018-11-29T23:17:51.823Z,21.13
2018-11-29T23:20:26.190Z,23.70
2018-11-29T23:23:00.903Z,22.70
2018-11-29T23:25:35.620Z,21.53
2018-11-29T23:28:10.442Z,22.87
2018-11-29T23:30:44.689Z,22.07
2018-11-29T23:33:19.363Z,21.27
2018-11-29T23:35:53.832Z,21.57
2018-11-29T23:38:28.548Z,20.30
2018-11-29T23:41:02.894Z,21.90
2018-11-29T23:43:37.448Z,22.77
2018-11-29T23:46:11.915Z,23.77
2018-11-29T23:48:46.551Z,19.80
2018-11-29T23:51:21.035Z,21.93
2018-11-29T23:53:55.410Z,19.87
2018-11-29T23:56:29.816Z,21.20
2018-11-29T23:59:04.790Z,19.70
